sensor_id;sensor_type;location;lat;lon;timestamp;P1;durP1;ratioP1;P2;durP2;ratioP2
14619;SDS011;32125;48.518;9.050;2023-07-20T00:00:33;3.77;;;2.30;;
14619;SDS011;32125;48.518;9.050;2023-07-20T00:03:11;3.38;;;1.75;;
14619;SDS011;32125;48.518;9.050;2023-07-20T00:05:41;2.53;;;2.00;;
14619;SDS011;32125;48.518;9.050;2023-07-20T00:08:09;2.83;;;2.17;;
14619;SDS011;32125;48.518;9.050;2023-07-20T00:10:35;4.32;;;2.30;;
14619;SDS011;32125;48.518;9.050;2023-07-20T00:13:02;3.53;;;2.35;;
14619;SDS011;32125;48.518;9.050;2023-07-20T00:15:28;3.95;;;2.20;;
14619;SDS011;32125;48.518;9.050;2023-07-20T00:17:54;2.58;;;2.17;;
14619;SDS011;32125;48.518;9.050;2023-07-20T00:20:21;3.27;;;2.57;;
14619;SDS011;32125;48.518;9.050;2023-07-20T00:22:49;2.53;;;2.20;;
14619;SDS011;32125;48.518;9.050;2023-07-20T00:25:16;4.87;;;2.50;;
14619;SDS011;32125;48.518;9.050;2023-07-20T00:27:42;4.07;;;2.57;;
14619;SDS011;32125;48.518;9.050;2023-07-20T00:30:08;2.57;;;2.10;;
14619;SDS011;32125;48.518;9.050;2023-07-20T00:32:34;4.00;;;2.10;;
14619;SDS011;32125;48.518;9.050;2023-07-20T00:35:02;5.70;;;2.30;;
14619;SDS011;32125;48.518;9.050;2023-07-20T00:37:28;5.80;;;2.20;;
14619;SDS011;32125;48.518;9.050;2023-07-20T00:39:59;2.87;;;2.20;;
14619;SDS011;32125;48.518;9.050;2023-07-20T00:42:25;3.93;;;2.50;;
14619;SDS011;32125;48.518;9.050;2023-07-20T00:44:51;3.00;;;2.20;;
14619;SDS011;32125;48.518;9.050;2023-07-20T00:47:19;3.83;;;2.20;;
14619;SDS011;32125;48.518;9.050;2023-07-20T00:49:45;4.27;;;2.30;;
14619;SDS011;32125;48.518;9.050;2023-07-20T00:52:11;4.10;;;2.40;;
14619;SDS011;32125;48.518;9.050;2023-07-20T00:54:38;2.60;;;2.40;;
14619;SDS011;32125;48.518;9.050;2023-07-20T00:57:04;2.77;;;2.23;;
14619;SDS011;32125;48.518;9.050;2023-07-20T00:59:32;4.20;;;2.40;;
14619;SDS011;32125;48.518;9.050;2023-07-20T01:01:58;4.70;;;2.30;;
14619;SDS011;32125;48.518;9.050;2023-07-20T01:04:27;4.70;;;2.57;;
14619;SDS011;32125;48.518;9.050;2023-07-20T01:07:06;3.37;;;2.30;;
14619;SDS011;32125;48.518;9.050;2023-07-20T01:09:41;2.97;;;2.60;;
14619;SDS011;32125;48.518;9.050;2023-07-20T01:12:09;4.23;;;2.90;;
14619;SDS011;32125;48.518;9.050;2023-07-20T01:14:48;4.77;;;2.57;;
14619;SDS011;32125;48.518;9.050;2023-07-20T01:17:14;3.63;;;2.60;;
14619;SDS011;32125;48.518;9.050;2023-07-20T01:19:42;3.07;;;2.30;;
14619;SDS011;32125;48.518;9.050;2023-07-20T01:30:14;2.83;;;2.50;;
14619;SDS011;32125;48.518;9.050;2023-07-20T01:33:07;4.53;;;2.73;;
14619;SDS011;32125;48.518;9.050;2023-07-20T01:35:34;3.90;;;2.50;;
14619;SDS011;32125;48.518;9.050;2023-07-20T01:38:01;3.40;;;2.50;;
14619;SDS011;32125;48.518;9.050;2023-07-20T01:40:27;2.90;;;2.60;;
14619;SDS011;32125;48.518;9.050;2023-07-20T01:42:53;5.90;;;2.63;;
14619;SDS011;32125;48.518;9.050;2023-07-20T01:45:20;5.37;;;2.60;;
14619;SDS011;32125;48.518;9.050;2023-07-20T01:47:46;3.23;;;2.73;;
14619;SDS011;32125;48.518;9.050;2023-07-20T01:50:16;4.00;;;2.70;;
14619;SDS011;32125;48.518;9.050;2023-07-20T01:52:44;5.23;;;2.70;;
14619;SDS011;32125;48.518;9.050;2023-07-20T01:55:09;2.90;;;2.60;;
14619;SDS011;32125;48.518;9.050;2023-07-20T01:57:35;3.00;;;2.80;;
14619;SDS011;32125;48.518;9.050;2023-07-20T02:00:01;4.60;;;2.73;;
14619;SDS011;32125;48.518;9.050;2023-07-20T02:02:27;5.60;;;2.67;;
14619;SDS011;32125;48.518;9.050;2023-07-20T02:04:54;7.33;;;2.90;;
14619;SDS011;32125;48.518;9.050;2023-07-20T02:07:20;2.97;;;2.60;;
14619;SDS011;32125;48.518;9.050;2023-07-20T02:09:46;5.50;;;2.80;;
14619;SDS011;32125;48.518;9.050;2023-07-20T02:12:11;3.07;;;2.50;;
14619;SDS011;32125;48.518;9.050;2023-07-20T02:14:37;4.17;;;2.67;;
14619;SDS011;32125;48.518;9.050;2023-07-20T02:17:05;4.40;;;2.73;;
14619;SDS011;32125;48.518;9.050;2023-07-20T02:19:31;4.27;;;2.63;;
14619;SDS011;32125;48.518;9.050;2023-07-20T02:21:56;2.60;;;2.40;;
14619;SDS011;32125;48.518;9.050;2023-07-20T02:24:23;2.97;;;2.67;;
14619;SDS011;32125;48.518;9.050;2023-07-20T02:26:50;3.00;;;2.43;;
14619;SDS011;32125;48.518;9.050;2023-07-20T02:29:16;3.27;;;2.97;;
14619;SDS011;32125;48.518;9.050;2023-07-20T02:31:42;5.20;;;2.70;;
14619;SDS011;32125;48.518;9.050;2023-07-20T02:34:13;3.47;;;2.60;;
14619;SDS011;32125;48.518;9.050;2023-07-20T02:36:38;4.13;;;2.80;;
14619;SDS011;32125;48.518;9.050;2023-07-20T02:39:04;5.47;;;3.00;;
14619;SDS011;32125;48.518;9.050;2023-07-20T02:41:32;3.50;;;2.77;;
14619;SDS011;32125;48.518;9.050;2023-07-20T02:44:01;3.23;;;2.50;;
14619;SDS011;32125;48.518;9.050;2023-07-20T02:46:27;3.17;;;2.87;;
14619;SDS011;32125;48.518;9.050;2023-07-20T02:48:57;3.80;;;2.67;;
14619;SDS011;32125;48.518;9.050;2023-07-20T02:51:23;3.27;;;2.70;;
14619;SDS011;32125;48.518;9.050;2023-07-20T02:53:49;2.83;;;2.63;;
14619;SDS011;32125;48.518;9.050;2023-07-20T02:56:16;3.40;;;2.80;;
14619;SDS011;32125;48.518;9.050;2023-07-20T02:58:43;4.77;;;2.67;;
14619;SDS011;32125;48.518;9.050;2023-07-20T03:01:11;2.90;;;2.70;;
14619;SDS011;32125;48.518;9.050;2023-07-20T03:03:38;3.73;;;2.80;;
14619;SDS011;32125;48.518;9.050;2023-07-20T03:06:05;3.17;;;2.60;;
14619;SDS011;32125;48.518;9.050;2023-07-20T03:08:30;4.37;;;2.63;;
14619;SDS011;32125;48.518;9.050;2023-07-20T03:10:56;3.27;;;2.70;;
14619;SDS011;32125;48.518;9.050;2023-07-20T03:13:27;6.57;;;2.90;;
14619;SDS011;32125;48.518;9.050;2023-07-20T03:15:53;4.97;;;2.70;;
14619;SDS011;32125;48.518;9.050;2023-07-20T03:18:19;3.47;;;2.70;;
14619;SDS011;32125;48.518;9.050;2023-07-20T03:20:45;3.10;;;2.53;;
14619;SDS011;32125;48.518;9.050;2023-07-20T03:23:11;2.90;;;2.63;;
14619;SDS011;32125;48.518;9.050;2023-07-20T03:25:37;3.60;;;2.80;;
14619;SDS011;32125;48.518;9.050;2023-07-20T03:28:03;3.10;;;2.77;;
14619;SDS011;32125;48.518;9.050;2023-07-20T03:30:29;3.13;;;2.80;;
14619;SDS011;32125;48.518;9.050;2023-07-20T03:32:59;4.80;;;3.23;;
14619;SDS011;32125;48.518;9.050;2023-07-20T03:35:25;3.93;;;2.90;;
14619;SDS011;32125;48.518;9.050;2023-07-20T03:37:51;3.43;;;2.90;;
14619;SDS011;32125;48.518;9.050;2023-07-20T03:40:19;4.97;;;2.60;;
14619;SDS011;32125;48.518;9.050;2023-07-20T03:42:45;4.60;;;2.70;;
14619;SDS011;32125;48.518;9.050;2023-07-20T03:45:11;4.57;;;2.93;;
14619;SDS011;32125;48.518;9.050;2023-07-20T03:47:37;4.93;;;3.20;;
14619;SDS011;32125;48.518;9.050;2023-07-20T03:50:03;3.60;;;2.90;;
14619;SDS011;32125;48.518;9.050;2023-07-20T03:52:31;4.50;;;2.57;;
14619;SDS011;32125;48.518;9.050;2023-07-20T03:54:57;3.47;;;2.80;;
14619;SDS011;32125;48.518;9.050;2023-07-20T03:57:23;3.10;;;2.80;;
14619;SDS011;32125;48.518;9.050;2023-07-20T03:59:49;4.33;;;2.93;;
14619;SDS011;32125;48.518;9.050;2023-07-20T04:02:15;3.47;;;2.90;;
14619;SDS011;32125;48.518;9.050;2023-07-20T04:04:41;5.77;;;3.03;;
14619;SDS011;32125;48.518;9.050;2023-07-20T04:07:07;3.93;;;3.00;;
14619;SDS011;32125;48.518;9.050;2023-07-20T04:09:33;3.50;;;2.70;;
14619;SDS011;32125;48.518;9.050;2023-07-20T04:11:58;5.70;;;3.10;;
14619;SDS011;32125;48.518;9.050;2023-07-20T04:14:27;3.63;;;2.90;;
14619;SDS011;32125;48.518;9.050;2023-07-20T04:16:53;3.97;;;3.00;;
14619;SDS011;32125;48.518;9.050;2023-07-20T04:19:23;3.60;;;2.80;;
14619;SDS011;32125;48.518;9.050;2023-07-20T04:21:49;4.33;;;3.10;;
14619;SDS011;32125;48.518;9.050;2023-07-20T04:24:18;5.07;;;2.87;;
14619;SDS011;32125;48.518;9.050;2023-07-20T04:26:44;3.40;;;2.87;;
14619;SDS011;32125;48.518;9.050;2023-07-20T04:29:10;3.87;;;3.00;;
14619;SDS011;32125;48.518;9.050;2023-07-20T04:31:36;3.40;;;2.57;;
14619;SDS011;32125;48.518;9.050;2023-07-20T04:34:01;3.40;;;2.90;;
14619;SDS011;32125;48.518;9.050;2023-07-20T04:36:27;5.23;;;2.87;;
14619;SDS011;32125;48.518;9.050;2023-07-20T04:38:53;3.17;;;2.87;;
14619;SDS011;32125;48.518;9.050;2023-07-20T04:41:19;4.17;;;2.90;;
14619;SDS011;32125;48.518;9.050;2023-07-20T04:43:46;4.20;;;2.80;;
14619;SDS011;32125;48.518;9.050;2023-07-20T04:46:12;4.97;;;3.00;;
14619;SDS011;32125;48.518;9.050;2023-07-20T04:48:38;5.63;;;3.07;;
14619;SDS011;32125;48.518;9.050;2023-07-20T04:51:05;4.83;;;3.23;;
14619;SDS011;32125;48.518;9.050;2023-07-20T04:53:31;4.97;;;3.30;;
14619;SDS011;32125;48.518;9.050;2023-07-20T04:55:57;5.83;;;3.00;;
14619;SDS011;32125;48.518;9.050;2023-07-20T04:58:26;3.23;;;2.80;;
14619;SDS011;32125;48.518;9.050;2023-07-20T05:00:52;3.43;;;2.83;;
14619;SDS011;32125;48.518;9.050;2023-07-20T05:03:18;5.77;;;3.20;;
14619;SDS011;32125;48.518;9.050;2023-07-20T05:05:46;4.00;;;3.00;;
14619;SDS011;32125;48.518;9.050;2023-07-20T05:08:13;4.70;;;3.20;;
14619;SDS011;32125;48.518;9.050;2023-07-20T05:10:39;5.40;;;3.47;;
14619;SDS011;32125;48.518;9.050;2023-07-20T05:13:05;5.00;;;3.53;;
14619;SDS011;32125;48.518;9.050;2023-07-20T05:15:32;4.80;;;3.10;;
14619;SDS011;32125;48.518;9.050;2023-07-20T05:17:59;4.77;;;3.40;;
14619;SDS011;32125;48.518;9.050;2023-07-20T05:20:26;5.00;;;3.30;;
14619;SDS011;32125;48.518;9.050;2023-07-20T05:22:52;3.27;;;2.90;;
14619;SDS011;32125;48.518;9.050;2023-07-20T05:25:18;6.27;;;3.50;;
14619;SDS011;32125;48.518;9.050;2023-07-20T05:27:47;4.67;;;2.87;;
14619;SDS011;32125;48.518;9.050;2023-07-20T05:30:13;6.27;;;3.17;;
14619;SDS011;32125;48.518;9.050;2023-07-20T05:32:42;4.93;;;3.00;;
14619;SDS011;32125;48.518;9.050;2023-07-20T05:35:10;6.77;;;3.40;;
14619;SDS011;32125;48.518;9.050;2023-07-20T05:37:37;3.63;;;3.30;;
14619;SDS011;32125;48.518;9.050;2023-07-20T05:40:03;10.57;;;4.03;;
14619;SDS011;32125;48.518;9.050;2023-07-20T05:42:30;3.57;;;2.93;;
14619;SDS011;32125;48.518;9.050;2023-07-20T05:44:56;4.23;;;2.83;;
14619;SDS011;32125;48.518;9.050;2023-07-20T05:47:25;4.20;;;3.10;;
14619;SDS011;32125;48.518;9.050;2023-07-20T05:49:53;4.30;;;2.90;;
14619;SDS011;32125;48.518;9.050;2023-07-20T05:52:19;3.50;;;3.00;;
14619;SDS011;32125;48.518;9.050;2023-07-20T05:54:45;6.10;;;3.00;;
14619;SDS011;32125;48.518;9.050;2023-07-20T05:57:13;6.37;;;3.27;;
14619;SDS011;32125;48.518;9.050;2023-07-20T05:59:39;4.47;;;3.03;;
14619;SDS011;32125;48.518;9.050;2023-07-20T06:02:09;3.63;;;3.00;;
14619;SDS011;32125;48.518;9.050;2023-07-20T06:04:35;3.13;;;2.70;;
14619;SDS011;32125;48.518;9.050;2023-07-20T06:07:06;7.30;;;3.00;;
14619;SDS011;32125;48.518;9.050;2023-07-20T06:09:32;5.23;;;3.00;;
14619;SDS011;32125;48.518;9.050;2023-07-20T06:11:59;4.70;;;3.03;;
14619;SDS011;32125;48.518;9.050;2023-07-20T06:14:25;6.33;;;3.07;;
14619;SDS011;32125;48.518;9.050;2023-07-20T06:16:51;7.33;;;3.00;;
14619;SDS011;32125;48.518;9.050;2023-07-20T06:19:17;7.27;;;3.30;;
14619;SDS011;32125;48.518;9.050;2023-07-20T06:21:47;4.77;;;2.87;;
14619;SDS011;32125;48.518;9.050;2023-07-20T06:24:14;6.57;;;2.73;;
14619;SDS011;32125;48.518;9.050;2023-07-20T06:26:40;12.60;;;3.30;;
14619;SDS011;32125;48.518;9.050;2023-07-20T06:29:06;8.10;;;3.10;;
14619;SDS011;32125;48.518;9.050;2023-07-20T06:31:38;5.30;;;2.78;;
14619;SDS011;32125;48.518;9.050;2023-07-20T06:34:04;12.82;;;3.92;;
14619;SDS011;32125;48.518;9.050;2023-07-20T06:36:30;11.67;;;3.13;;
14619;SDS011;32125;48.518;9.050;2023-07-20T06:38:58;7.10;;;3.10;;
14619;SDS011;32125;48.518;9.050;2023-07-20T06:41:27;6.07;;;3.20;;
14619;SDS011;32125;48.518;9.050;2023-07-20T06:43:53;5.20;;;2.70;;
14619;SDS011;32125;48.518;9.050;2023-07-20T06:46:25;6.32;;;3.10;;
14619;SDS011;32125;48.518;9.050;2023-07-20T06:48:51;5.45;;;2.50;;
14619;SDS011;32125;48.518;9.050;2023-07-20T06:51:17;3.70;;;2.47;;
14619;SDS011;32125;48.518;9.050;2023-07-20T06:53:43;4.72;;;2.58;;
14619;SDS011;32125;48.518;9.050;2023-07-20T06:56:14;3.35;;;2.35;;
14619;SDS011;32125;48.518;9.050;2023-07-20T06:58:40;4.32;;;2.33;;
14619;SDS011;32125;48.518;9.050;2023-07-20T07:01:07;4.03;;;2.58;;
14619;SDS011;32125;48.518;9.050;2023-07-20T07:03:33;3.28;;;2.67;;
14619;SDS011;32125;48.518;9.050;2023-07-20T07:05:59;4.82;;;2.70;;
14619;SDS011;32125;48.518;9.050;2023-07-20T07:08:28;5.45;;;2.40;;
14619;SDS011;32125;48.518;9.050;2023-07-20T07:10:54;3.78;;;2.35;;
14619;SDS011;32125;48.518;9.050;2023-07-20T07:13:22;4.88;;;2.40;;
14619;SDS011;32125;48.518;9.050;2023-07-20T07:15:56;5.85;;;2.20;;
14619;SDS011;32125;48.518;9.050;2023-07-20T07:18:22;3.97;;;2.45;;
14619;SDS011;32125;48.518;9.050;2023-07-20T07:20:50;4.25;;;2.45;;
14619;SDS011;32125;48.518;9.050;2023-07-20T07:23:17;5.30;;;2.38;;
14619;SDS011;32125;48.518;9.050;2023-07-20T07:25:43;5.35;;;2.53;;
14619;SDS011;32125;48.518;9.050;2023-07-20T07:28:09;4.80;;;2.67;;
14619;SDS011;32125;48.518;9.050;2023-07-20T07:30:35;5.07;;;2.38;;
14619;SDS011;32125;48.518;9.050;2023-07-20T07:33:01;5.70;;;2.33;;
14619;SDS011;32125;48.518;9.050;2023-07-20T07:35:27;4.07;;;2.50;;
14619;SDS011;32125;48.518;9.050;2023-07-20T07:37:53;3.00;;;2.20;;
14619;SDS011;32125;48.518;9.050;2023-07-20T07:40:21;2.58;;;2.25;;
14619;SDS011;32125;48.518;9.050;2023-07-20T07:42:47;3.72;;;2.13;;
14619;SDS011;32125;48.518;9.050;2023-07-20T07:45:13;2.85;;;2.38;;
14619;SDS011;32125;48.518;9.050;2023-07-20T07:47:39;3.83;;;2.00;;
14619;SDS011;32125;48.518;9.050;2023-07-20T07:50:05;3.47;;;2.00;;
14619;SDS011;32125;48.518;9.050;2023-07-20T07:52:32;6.32;;;2.67;;
14619;SDS011;32125;48.518;9.050;2023-07-20T07:54:57;4.78;;;2.40;;
14619;SDS011;32125;48.518;9.050;2023-07-20T07:57:27;2.83;;;2.22;;
14619;SDS011;32125;48.518;9.050;2023-07-20T07:59:53;4.15;;;2.17;;
14619;SDS011;32125;48.518;9.050;2023-07-20T08:02:19;2.85;;;2.30;;
14619;SDS011;32125;48.518;9.050;2023-07-20T08:04:46;3.28;;;2.08;;
14619;SDS011;32125;48.518;9.050;2023-07-20T08:10:01;2.95;;;2.17;;
14619;SDS011;32125;48.518;9.050;2023-07-20T08:12:27;4.47;;;2.25;;
14619;SDS011;32125;48.518;9.050;2023-07-20T08:14:53;4.30;;;2.35;;
14619;SDS011;32125;48.518;9.050;2023-07-20T08:17:19;4.25;;;2.17;;
14619;SDS011;32125;48.518;9.050;2023-07-20T08:19:46;2.97;;;2.42;;
14619;SDS011;32125;48.518;9.050;2023-07-20T08:22:12;2.20;;;2.00;;
14619;SDS011;32125;48.518;9.050;2023-07-20T08:24:41;5.75;;;2.28;;
14619;SDS011;32125;48.518;9.050;2023-07-20T08:27:08;5.50;;;2.20;;
14619;SDS011;32125;48.518;9.050;2023-07-20T08:29:37;4.00;;;2.00;;
14619;SDS011;32125;48.518;9.050;2023-07-20T08:32:03;4.00;;;2.15;;
14619;SDS011;32125;48.518;9.050;2023-07-20T08:34:30;6.00;;;2.25;;
14619;SDS011;32125;48.518;9.050;2023-07-20T08:36:56;2.72;;;2.05;;
14619;SDS011;32125;48.518;9.050;2023-07-20T08:39:22;3.92;;;2.10;;
14619;SDS011;32125;48.518;9.050;2023-07-20T08:41:49;3.25;;;1.90;;
14619;SDS011;32125;48.518;9.050;2023-07-20T08:44:16;4.45;;;2.17;;
14619;SDS011;32125;48.518;9.050;2023-07-20T08:46:43;2.90;;;1.92;;
14619;SDS011;32125;48.518;9.050;2023-07-20T08:49:09;2.30;;;1.90;;
14619;SDS011;32125;48.518;9.050;2023-07-20T08:51:36;4.55;;;2.10;;
14619;SDS011;32125;48.518;9.050;2023-07-20T08:54:03;3.38;;;2.00;;
14619;SDS011;32125;48.518;9.050;2023-07-20T08:56:29;3.85;;;2.10;;
14619;SDS011;32125;48.518;9.050;2023-07-20T08:58:56;4.10;;;2.28;;
14619;SDS011;32125;48.518;9.050;2023-07-20T09:01:22;4.32;;;2.13;;
14619;SDS011;32125;48.518;9.050;2023-07-20T09:03:49;2.90;;;1.80;;
14619;SDS011;32125;48.518;9.050;2023-07-20T09:06:15;2.10;;;1.90;;
14619;SDS011;32125;48.518;9.050;2023-07-20T09:08:41;4.32;;;2.10;;
14619;SDS011;32125;48.518;9.050;2023-07-20T09:11:10;4.95;;;1.90;;
14619;SDS011;32125;48.518;9.050;2023-07-20T09:13:37;2.22;;;1.83;;
14619;SDS011;32125;48.518;9.050;2023-07-20T09:16:03;5.53;;;2.08;;
14619;SDS011;32125;48.518;9.050;2023-07-20T09:18:31;2.75;;;1.90;;
14619;SDS011;32125;48.518;9.050;2023-07-20T09:21:06;3.08;;;1.70;;
14619;SDS011;32125;48.518;9.050;2023-07-20T09:23:36;3.78;;;1.70;;
14619;SDS011;32125;48.518;9.050;2023-07-20T09:26:11;3.92;;;1.70;;
14619;SDS011;32125;48.518;9.050;2023-07-20T09:28:51;4.32;;;1.70;;
14619;SDS011;32125;48.518;9.050;2023-07-20T09:31:20;3.47;;;1.70;;
14619;SDS011;32125;48.518;9.050;2023-07-20T09:33:47;4.40;;;1.88;;
14619;SDS011;32125;48.518;9.050;2023-07-20T09:36:14;4.68;;;1.80;;
14619;SDS011;32125;48.518;9.050;2023-07-20T09:38:41;4.45;;;1.77;;
14619;SDS011;32125;48.518;9.050;2023-07-20T09:41:08;2.45;;;1.73;;
14619;SDS011;32125;48.518;9.050;2023-07-20T09:43:34;3.42;;;1.73;;
14619;SDS011;32125;48.518;9.050;2023-07-20T09:46:00;5.50;;;1.75;;
14619;SDS011;32125;48.518;9.050;2023-07-20T09:48:26;6.45;;;1.60;;
14619;SDS011;32125;48.518;9.050;2023-07-20T09:50:52;2.80;;;1.65;;
14619;SDS011;32125;48.518;9.050;2023-07-20T09:53:19;1.48;;;1.38;;
14619;SDS011;32125;48.518;9.050;2023-07-20T09:55:48;5.45;;;1.65;;
14619;SDS011;32125;48.518;9.050;2023-07-20T09:58:17;1.83;;;1.30;;
14619;SDS011;32125;48.518;9.050;2023-07-20T10:00:44;4.20;;;1.40;;
14619;SDS011;32125;48.518;9.050;2023-07-20T10:03:13;3.55;;;1.55;;
14619;SDS011;32125;48.518;9.050;2023-07-20T10:05:43;2.10;;;1.40;;
14619;SDS011;32125;48.518;9.050;2023-07-20T10:08:12;1.52;;;1.40;;
14619;SDS011;32125;48.518;9.050;2023-07-20T10:10:41;3.47;;;1.38;;
14619;SDS011;32125;48.518;9.050;2023-07-20T10:13:10;1.60;;;1.30;;
14619;SDS011;32125;48.518;9.050;2023-07-20T10:15:59;1.85;;;1.30;;
14619;SDS011;32125;48.518;9.050;2023-07-20T10:21:17;2.58;;;1.30;;
14619;SDS011;32125;48.518;9.050;2023-07-20T10:23:47;1.77;;;1.30;;
14619;SDS011;32125;48.518;9.050;2023-07-20T10:26:14;2.08;;;1.20;;
14619;SDS011;32125;48.518;9.050;2023-07-20T10:28:40;2.88;;;1.40;;
14619;SDS011;32125;48.518;9.050;2023-07-20T10:31:10;3.35;;;1.40;;
14619;SDS011;32125;48.518;9.050;2023-07-20T10:33:37;2.00;;;1.30;;
14619;SDS011;32125;48.518;9.050;2023-07-20T10:36:04;3.42;;;1.40;;
14619;SDS011;32125;48.518;9.050;2023-07-20T10:43:46;4.82;;;1.30;;
14619;SDS011;32125;48.518;9.050;2023-07-20T10:46:12;4.43;;;1.40;;
14619;SDS011;32125;48.518;9.050;2023-07-20T10:51:23;2.15;;;1.30;;
14619;SDS011;32125;48.518;9.050;2023-07-20T10:53:49;2.03;;;1.30;;
14619;SDS011;32125;48.518;9.050;2023-07-20T10:56:20;2.55;;;1.40;;
14619;SDS011;32125;48.518;9.050;2023-07-20T10:58:47;1.73;;;1.30;;
14619;SDS011;32125;48.518;9.050;2023-07-20T11:01:14;2.25;;;1.38;;
14619;SDS011;32125;48.518;9.050;2023-07-20T11:03:43;1.60;;;1.50;;
14619;SDS011;32125;48.518;9.050;2023-07-20T11:09:10;2.42;;;1.30;;
14619;SDS011;32125;48.518;9.050;2023-07-20T11:11:40;1.30;;;1.20;;
14619;SDS011;32125;48.518;9.050;2023-07-20T11:14:10;2.05;;;1.30;;
14619;SDS011;32125;48.518;9.050;2023-07-20T11:16:47;1.52;;;1.20;;
14619;SDS011;32125;48.518;9.050;2023-07-20T11:21:46;2.45;;;1.13;;
14619;SDS011;32125;48.518;9.050;2023-07-20T11:24:18;2.50;;;1.20;;
14619;SDS011;32125;48.518;9.050;2023-07-20T11:29:10;1.30;;;1.20;;
14619;SDS011;32125;48.518;9.050;2023-07-20T11:31:37;2.40;;;1.30;;
14619;SDS011;32125;48.518;9.050;2023-07-20T11:34:04;1.40;;;1.30;;
14619;SDS011;32125;48.518;9.050;2023-07-20T11:36:30;2.88;;;1.20;;
14619;SDS011;32125;48.518;9.050;2023-07-20T11:38:58;2.20;;;1.33;;
14619;SDS011;32125;48.518;9.050;2023-07-20T11:41:27;2.30;;;1.30;;
14619;SDS011;32125;48.518;9.050;2023-07-20T11:43:55;1.35;;;1.25;;
14619;SDS011;32125;48.518;9.050;2023-07-20T11:46:22;2.60;;;1.10;;
14619;SDS011;32125;48.518;9.050;2023-07-20T11:48:55;1.65;;;1.42;;
14619;SDS011;32125;48.518;9.050;2023-07-20T11:51:23;1.30;;;1.20;;
14619;SDS011;32125;48.518;9.050;2023-07-20T11:53:52;2.05;;;1.10;;
14619;SDS011;32125;48.518;9.050;2023-07-20T11:56:18;1.33;;;1.23;;
14619;SDS011;32125;48.518;9.050;2023-07-20T11:58:47;2.63;;;1.20;;
14619;SDS011;32125;48.518;9.050;2023-07-20T12:01:13;2.10;;;1.20;;
14619;SDS011;32125;48.518;9.050;2023-07-20T12:03:39;1.77;;;1.38;;
14619;SDS011;32125;48.518;9.050;2023-07-20T12:06:06;1.73;;;1.23;;
14619;SDS011;32125;48.518;9.050;2023-07-20T12:08:33;2.05;;;1.17;;
14619;SDS011;32125;48.518;9.050;2023-07-20T12:10:59;1.27;;;1.17;;
14619;SDS011;32125;48.518;9.050;2023-07-20T12:13:44;1.77;;;1.05;;
14619;SDS011;32125;48.518;9.050;2023-07-20T12:16:19;2.80;;;1.27;;
14619;SDS011;32125;48.518;9.050;2023-07-20T12:18:45;2.20;;;1.30;;
14619;SDS011;32125;48.518;9.050;2023-07-20T12:21:11;2.35;;;1.30;;
14619;SDS011;32125;48.518;9.050;2023-07-20T12:23:37;1.90;;;1.30;;
14619;SDS011;32125;48.518;9.050;2023-07-20T12:26:13;2.20;;;1.20;;
14619;SDS011;32125;48.518;9.050;2023-07-20T12:28:42;1.73;;;1.33;;
14619;SDS011;32125;48.518;9.050;2023-07-20T12:31:09;2.25;;;1.27;;
14619;SDS011;32125;48.518;9.050;2023-07-20T12:33:38;1.38;;;1.27;;
14619;SDS011;32125;48.518;9.050;2023-07-20T12:36:05;2.45;;;1.23;;
14619;SDS011;32125;48.518;9.050;2023-07-20T12:38:33;3.75;;;1.20;;
14619;SDS011;32125;48.518;9.050;2023-07-20T12:41:02;3.38;;;1.38;;
14619;SDS011;32125;48.518;9.050;2023-07-20T12:43:29;3.90;;;1.33;;
14619;SDS011;32125;48.518;9.050;2023-07-20T12:46:06;1.35;;;1.25;;
14619;SDS011;32125;48.518;9.050;2023-07-20T12:48:40;6.30;;;1.30;;
14619;SDS011;32125;48.518;9.050;2023-07-20T12:51:08;1.55;;;1.40;;
14619;SDS011;32125;48.518;9.050;2023-07-20T12:53:37;3.70;;;1.33;;
14619;SDS011;32125;48.518;9.050;2023-07-20T12:56:04;3.40;;;1.30;;
14619;SDS011;32125;48.518;9.050;2023-07-20T12:58:30;1.40;;;1.30;;
14619;SDS011;32125;48.518;9.050;2023-07-20T13:00:59;3.58;;;1.38;;
14619;SDS011;32125;48.518;9.050;2023-07-20T13:03:25;3.67;;;1.70;;
14619;SDS011;32125;48.518;9.050;2023-07-20T13:05:51;2.35;;;1.40;;
14619;SDS011;32125;48.518;9.050;2023-07-20T13:08:17;3.17;;;1.45;;
14619;SDS011;32125;48.518;9.050;2023-07-20T13:10:44;2.10;;;1.50;;
14619;SDS011;32125;48.518;9.050;2023-07-20T13:13:10;1.58;;;1.48;;
14619;SDS011;32125;48.518;9.050;2023-07-20T13:15:41;1.23;;;1.20;;
14619;SDS011;32125;48.518;9.050;2023-07-20T13:18:09;1.30;;;1.25;;
14619;SDS011;32125;48.518;9.050;2023-07-20T13:20:36;1.60;;;1.23;;
14619;SDS011;32125;48.518;9.050;2023-07-20T13:23:02;2.45;;;1.30;;
14619;SDS011;32125;48.518;9.050;2023-07-20T13:25:28;1.98;;;1.50;;
14619;SDS011;32125;48.518;9.050;2023-07-20T13:27:54;1.60;;;1.50;;
14619;SDS011;32125;48.518;9.050;2023-07-20T13:30:20;5.40;;;1.50;;
14619;SDS011;32125;48.518;9.050;2023-07-20T13:32:49;1.63;;;1.40;;
14619;SDS011;32125;48.518;9.050;2023-07-20T13:35:15;2.55;;;1.33;;
14619;SDS011;32125;48.518;9.050;2023-07-20T13:37:42;1.98;;;1.40;;
14619;SDS011;32125;48.518;9.050;2023-07-20T13:40:08;1.50;;;1.40;;
14619;SDS011;32125;48.518;9.050;2023-07-20T13:42:40;1.98;;;1.33;;
14619;SDS011;32125;48.518;9.050;2023-07-20T13:45:08;2.45;;;1.50;;
14619;SDS011;32125;48.518;9.050;2023-07-20T13:47:35;1.52;;;1.42;;
14619;SDS011;32125;48.518;9.050;2023-07-20T13:50:00;1.75;;;1.40;;
14619;SDS011;32125;48.518;9.050;2023-07-20T13:52:26;1.65;;;1.40;;
14619;SDS011;32125;48.518;9.050;2023-07-20T13:54:52;1.35;;;1.23;;
14619;SDS011;32125;48.518;9.050;2023-07-20T13:57:18;1.83;;;1.30;;
14619;SDS011;32125;48.518;9.050;2023-07-20T13:59:44;1.40;;;1.30;;
14619;SDS011;32125;48.518;9.050;2023-07-20T14:02:10;3.10;;;1.35;;
14619;SDS011;32125;48.518;9.050;2023-07-20T14:04:36;3.55;;;2.40;;
14619;SDS011;32125;48.518;9.050;2023-07-20T14:07:02;2.20;;;1.30;;
14619;SDS011;32125;48.518;9.050;2023-07-20T14:09:28;2.25;;;1.45;;
14619;SDS011;32125;48.518;9.050;2023-07-20T14:11:53;2.08;;;1.70;;
14619;SDS011;32125;48.518;9.050;2023-07-20T14:14:19;1.75;;;1.65;;
14619;SDS011;32125;48.518;9.050;2023-07-20T14:16:45;2.28;;;1.58;;
14619;SDS011;32125;48.518;9.050;2023-07-20T14:19:11;2.70;;;1.30;;
14619;SDS011;32125;48.518;9.050;2023-07-20T14:21:40;2.08;;;1.45;;
14619;SDS011;32125;48.518;9.050;2023-07-20T14:24:08;5.97;;;1.55;;
14619;SDS011;32125;48.518;9.050;2023-07-20T14:26:34;3.13;;;1.50;;
14619;SDS011;32125;48.518;9.050;2023-07-20T14:29:03;3.70;;;1.45;;
14619;SDS011;32125;48.518;9.050;2023-07-20T14:31:32;3.50;;;1.50;;
14619;SDS011;32125;48.518;9.050;2023-07-20T14:33:58;1.50;;;1.40;;
14619;SDS011;32125;48.518;9.050;2023-07-20T14:36:25;5.55;;;1.40;;
14619;SDS011;32125;48.518;9.050;2023-07-20T14:38:51;2.58;;;1.50;;
14619;SDS011;32125;48.518;9.050;2023-07-20T14:41:17;2.50;;;1.63;;
14619;SDS011;32125;48.518;9.050;2023-07-20T14:43:44;3.60;;;1.55;;
14619;SDS011;32125;48.518;9.050;2023-07-20T14:46:09;1.98;;;1.70;;
14619;SDS011;32125;48.518;9.050;2023-07-20T14:48:35;1.70;;;1.60;;
14619;SDS011;32125;48.518;9.050;2023-07-20T14:51:01;2.40;;;1.60;;
14619;SDS011;32125;48.518;9.050;2023-07-20T14:53:27;3.42;;;1.70;;
14619;SDS011;32125;48.518;9.050;2023-07-20T14:55:57;1.60;;;1.50;;
14619;SDS011;32125;48.518;9.050;2023-07-20T14:58:23;1.60;;;1.50;;
14619;SDS011;32125;48.518;9.050;2023-07-20T15:00:49;1.88;;;1.73;;
14619;SDS011;32125;48.518;9.050;2023-07-20T15:03:15;2.08;;;1.60;;
14619;SDS011;32125;48.518;9.050;2023-07-20T15:05:43;1.85;;;1.60;;
14619;SDS011;32125;48.518;9.050;2023-07-20T15:08:09;2.13;;;1.52;;
14619;SDS011;32125;48.518;9.050;2023-07-20T15:10:35;2.05;;;1.50;;
14619;SDS011;32125;48.518;9.050;2023-07-20T15:13:01;1.67;;;1.30;;
14619;SDS011;32125;48.518;9.050;2023-07-20T15:15:28;2.70;;;1.40;;
14619;SDS011;32125;48.518;9.050;2023-07-20T15:17:55;2.67;;;1.50;;